Suisun City, California
Current Conditions -  °F | °C
As of 10:58 AM on Thursday 23 Oct 2014 (Local Time) from KSUU Reporting Station
Few Clouds Few Clouds  
Wind Chill: 71°   Ceiling: Unl
Heat Index: 71°   Visibility: 10mi
Dew Point: 59°   Wind: 8mph
Humidity: 66%   Direction: 240°WSW
Pressure: 30.05"   Gusts: NA
Location:  38.24°N, 122.03°W
Report Text: KSUU 231758Z AUTO 24007KT 10SM FEW200 22/15 A3005 RMK AO2 SLP182 T02150150 10217 20144 $
Loading
Personal Weather Stations






























Interactive Weather Map
Tropical Storm Tracking
New forecast layout! Learn more

10-Day Weather Forecast

Advertisements
Track Severe Weather on mobile